North Platte, Nebraska
Current Conditions -  °F | °C
As of 10:53 PM on Friday 28 Nov 2014 (Local Time) from KLBF Reporting Station
Clear Clear  
Wind Chill: 25°   Ceiling: Unl
Heat Index: 30°   Visibility: 10mi
Dew Point: 21°   Wind: 5mph
Humidity: 69%   Direction: 290°WNW
Pressure: 29.67"   Gusts: NA
Location:  41.14°N, 100.76°W
Report Text: KLBF 290453Z AUTO 29004KT 10SM CLR M01/M06 A2967 RMK AO2 SLP058 T10111061
Loading
Personal Weather Stations






























Interactive Weather Map New forecast layout! Learn more

10-Day Weather Forecast

Advertisements
Track Severe Weather on mobile